sensor_id;sensor_type;location;lat;lon;timestamp;temperature;humidity
69335;SHT31;56477;52.742;15.242;2023-08-31T00:02:07;14.32;96.62
69335;SHT31;56477;52.742;15.242;2023-08-31T00:04:34;14.32;96.39
69335;SHT31;56477;52.742;15.242;2023-08-31T00:07:00;14.28;96.50
69335;SHT31;56477;52.742;15.242;2023-08-31T00:09:26;14.33;96.17
69335;SHT31;56477;52.742;15.242;2023-08-31T00:11:52;14.33;95.84
69335;SHT31;56477;52.742;15.242;2023-08-31T00:14:18;14.39;95.72
69335;SHT31;56477;52.742;15.242;2023-08-31T00:16:44;14.40;95.48
69335;SHT31;56477;52.742;15.242;2023-08-31T00:19:12;14.45;95.09
69335;SHT31;56477;52.742;15.242;2023-08-31T00:21:40;14.43;95.98
69335;SHT31;56477;52.742;15.242;2023-08-31T00:24:06;14.43;95.14
69335;SHT31;56477;52.742;15.242;2023-08-31T00:26:36;14.52;94.36
69335;SHT31;56477;52.742;15.242;2023-08-31T00:29:10;14.56;93.98
69335;SHT31;56477;52.742;15.242;2023-08-31T00:31:37;14.62;93.90
69335;SHT31;56477;52.742;15.242;2023-08-31T00:34:03;14.59;93.97
69335;SHT31;56477;52.742;15.242;2023-08-31T00:36:33;14.46;95.07
69335;SHT31;56477;52.742;15.242;2023-08-31T00:39:05;14.46;94.97
69335;SHT31;56477;52.742;15.242;2023-08-31T00:41:32;14.35;95.37
69335;SHT31;56477;52.742;15.242;2023-08-31T00:43:58;14.33;95.62
69335;SHT31;56477;52.742;15.242;2023-08-31T00:46:24;14.38;94.72
69335;SHT31;56477;52.742;15.242;2023-08-31T00:48:54;14.43;94.53
69335;SHT31;56477;52.742;15.242;2023-08-31T00:51:20;14.43;94.43
69335;SHT31;56477;52.742;15.242;2023-08-31T00:53:47;14.40;94.75
69335;SHT31;56477;52.742;15.242;2023-08-31T00:56:17;14.40;94.89
69335;SHT31;56477;52.742;15.242;2023-08-31T00:58:43;14.38;94.78
69335;SHT31;56477;52.742;15.242;2023-08-31T01:12:11;14.14;96.67
69335;SHT31;56477;52.742;15.242;2023-08-31T01:14:48;14.14;96.48
69335;SHT31;56477;52.742;15.242;2023-08-31T01:17:17;14.09;96.76
69335;SHT31;56477;52.742;15.242;2023-08-31T01:19:49;14.05;96.72
69335;SHT31;56477;52.742;15.242;2023-08-31T01:22:51;14.07;96.54
69335;SHT31;56477;52.742;15.242;2023-08-31T01:25:21;14.02;96.65
69335;SHT31;56477;52.742;15.242;2023-08-31T01:27:47;14.02;96.65
69335;SHT31;56477;52.742;15.242;2023-08-31T01:30:13;14.04;96.73
69335;SHT31;56477;52.742;15.242;2023-08-31T01:32:44;14.00;96.78
69335;SHT31;56477;52.742;15.242;2023-08-31T01:35:15;14.01;96.84
69335;SHT31;56477;52.742;15.242;2023-08-31T01:37:57;13.94;97.15
69335;SHT31;56477;52.742;15.242;2023-08-31T01:40:48;13.84;97.54
69335;SHT31;56477;52.742;15.242;2023-08-31T01:43:17;13.80;97.89
69335;SHT31;56477;52.742;15.242;2023-08-31T01:45:44;13.78;97.96
69335;SHT31;56477;52.742;15.242;2023-08-31T01:48:13;13.77;98.29
69335;SHT31;56477;52.742;15.242;2023-08-31T01:50:39;13.77;98.30
69335;SHT31;56477;52.742;15.242;2023-08-31T01:53:05;13.84;97.22
69335;SHT31;56477;52.742;15.242;2023-08-31T01:55:32;13.95;96.23
69335;SHT31;56477;52.742;15.242;2023-08-31T01:57:58;14.00;96.95
69335;SHT31;56477;52.742;15.242;2023-08-31T02:00:25;14.02;96.88
69335;SHT31;56477;52.742;15.242;2023-08-31T02:02:51;13.95;97.00
69335;SHT31;56477;52.742;15.242;2023-08-31T02:05:17;13.87;97.39
69335;SHT31;56477;52.742;15.242;2023-08-31T02:07:43;13.81;97.57
69335;SHT31;56477;52.742;15.242;2023-08-31T02:10:09;13.73;98.24
69335;SHT31;56477;52.742;15.242;2023-08-31T02:12:35;13.74;97.83
69335;SHT31;56477;52.742;15.242;2023-08-31T02:15:05;13.73;97.78
69335;SHT31;56477;52.742;15.242;2023-08-31T02:17:33;13.57;98.53
69335;SHT31;56477;52.742;15.242;2023-08-31T02:19:59;13.56;98.67
69335;SHT31;56477;52.742;15.242;2023-08-31T02:22:26;13.57;98.64
69335;SHT31;56477;52.742;15.242;2023-08-31T02:24:52;13.51;98.96
69335;SHT31;56477;52.742;15.242;2023-08-31T02:27:18;13.49;99.20
69335;SHT31;56477;52.742;15.242;2023-08-31T02:29:43;13.47;99.26
69335;SHT31;56477;52.742;15.242;2023-08-31T02:32:10;13.40;99.44
69335;SHT31;56477;52.742;15.242;2023-08-31T02:34:35;13.36;99.33
69335;SHT31;56477;52.742;15.242;2023-08-31T02:37:01;13.39;99.30
69335;SHT31;56477;52.742;15.242;2023-08-31T02:39:27;13.38;99.38
69335;SHT31;56477;52.742;15.242;2023-08-31T02:41:53;13.38;98.84
69335;SHT31;56477;52.742;15.242;2023-08-31T02:44:19;13.35;99.09
69335;SHT31;56477;52.742;15.242;2023-08-31T02:46:45;13.33;98.93
69335;SHT31;56477;52.742;15.242;2023-08-31T02:49:11;13.32;99.31
69335;SHT31;56477;52.742;15.242;2023-08-31T02:51:37;13.29;98.96
69335;SHT31;56477;52.742;15.242;2023-08-31T02:54:02;13.27;99.09
69335;SHT31;56477;52.742;15.242;2023-08-31T02:56:30;13.18;99.12
69335;SHT31;56477;52.742;15.242;2023-08-31T02:58:56;13.16;99.25
69335;SHT31;56477;52.742;15.242;2023-08-31T03:01:22;13.13;99.07
69335;SHT31;56477;52.742;15.242;2023-08-31T03:03:50;13.08;99.01
69335;SHT31;56477;52.742;15.242;2023-08-31T03:06:17;13.08;98.97
69335;SHT31;56477;52.742;15.242;2023-08-31T03:08:42;13.08;99.09
69335;SHT31;56477;52.742;15.242;2023-08-31T03:11:08;12.96;99.50
69335;SHT31;56477;52.742;15.242;2023-08-31T03:13:34;12.92;99.69
69335;SHT31;56477;52.742;15.242;2023-08-31T03:16:01;12.89;99.62
69335;SHT31;56477;52.742;15.242;2023-08-31T03:18:28;12.91;99.53
69335;SHT31;56477;52.742;15.242;2023-08-31T03:20:55;12.89;99.53
69335;SHT31;56477;52.742;15.242;2023-08-31T03:23:21;12.89;99.49
69335;SHT31;56477;52.742;15.242;2023-08-31T03:25:47;12.88;99.55
69335;SHT31;56477;52.742;15.242;2023-08-31T03:28:13;12.85;99.68
69335;SHT31;56477;52.742;15.242;2023-08-31T03:30:39;12.78;99.81
69335;SHT31;56477;52.742;15.242;2023-08-31T03:33:05;12.77;99.84
69335;SHT31;56477;52.742;15.242;2023-08-31T03:35:32;12.80;99.74
69335;SHT31;56477;52.742;15.242;2023-08-31T03:37:58;12.82;99.62
69335;SHT31;56477;52.742;15.242;2023-08-31T03:40:24;12.81;99.44
69335;SHT31;56477;52.742;15.242;2023-08-31T03:42:50;12.84;99.71
69335;SHT31;56477;52.742;15.242;2023-08-31T03:45:16;12.92;99.36
69335;SHT31;56477;52.742;15.242;2023-08-31T03:47:42;12.89;98.99
69335;SHT31;56477;52.742;15.242;2023-08-31T03:50:08;12.91;98.78
69335;SHT31;56477;52.742;15.242;2023-08-31T03:52:34;12.93;98.89
69335;SHT31;56477;52.742;15.242;2023-08-31T03:55:00;12.91;98.67
69335;SHT31;56477;52.742;15.242;2023-08-31T03:57:26;12.96;98.64
69335;SHT31;56477;52.742;15.242;2023-08-31T03:59:52;12.92;98.55
69335;SHT31;56477;52.742;15.242;2023-08-31T04:02:18;12.85;98.55
69335;SHT31;56477;52.742;15.242;2023-08-31T04:04:44;12.81;98.58
69335;SHT31;56477;52.742;15.242;2023-08-31T04:07:10;12.77;98.64
69335;SHT31;56477;52.742;15.242;2023-08-31T04:09:36;12.78;98.71
69335;SHT31;56477;52.742;15.242;2023-08-31T04:12:01;12.78;98.67
69335;SHT31;56477;52.742;15.242;2023-08-31T04:14:27;12.82;98.59
69335;SHT31;56477;52.742;15.242;2023-08-31T04:16:56;12.80;98.49
69335;SHT31;56477;52.742;15.242;2023-08-31T04:19:22;12.78;98.70
69335;SHT31;56477;52.742;15.242;2023-08-31T04:21:48;12.77;98.63
69335;SHT31;56477;52.742;15.242;2023-08-31T04:24:14;12.75;98.86
69335;SHT31;56477;52.742;15.242;2023-08-31T04:26:40;12.80;98.88
69335;SHT31;56477;52.742;15.242;2023-08-31T04:29:06;12.84;98.75
69335;SHT31;56477;52.742;15.242;2023-08-31T04:31:32;12.85;98.74
69335;SHT31;56477;52.742;15.242;2023-08-31T04:33:58;12.87;98.79
69335;SHT31;56477;52.742;15.242;2023-08-31T04:36:24;12.89;98.77
69335;SHT31;56477;52.742;15.242;2023-08-31T04:38:51;12.92;98.62
69335;SHT31;56477;52.742;15.242;2023-08-31T04:41:17;12.85;98.74
69335;SHT31;56477;52.742;15.242;2023-08-31T04:43:44;12.89;98.71
69335;SHT31;56477;52.742;15.242;2023-08-31T04:46:10;12.93;98.74
69335;SHT31;56477;52.742;15.242;2023-08-31T04:48:36;12.95;98.62
69335;SHT31;56477;52.742;15.242;2023-08-31T04:51:02;12.95;98.63
69335;SHT31;56477;52.742;15.242;2023-08-31T04:53:29;12.96;98.52
69335;SHT31;56477;52.742;15.242;2023-08-31T04:55:58;13.02;98.29
69335;SHT31;56477;52.742;15.242;2023-08-31T04:58:24;12.98;98.53
69335;SHT31;56477;52.742;15.242;2023-08-31T05:00:51;12.99;98.54
69335;SHT31;56477;52.742;15.242;2023-08-31T05:03:17;12.98;98.56
69335;SHT31;56477;52.742;15.242;2023-08-31T05:05:43;13.06;98.50
69335;SHT31;56477;52.742;15.242;2023-08-31T05:08:10;13.10;98.31
69335;SHT31;56477;52.742;15.242;2023-08-31T05:10:35;13.12;98.14
69335;SHT31;56477;52.742;15.242;2023-08-31T05:13:02;13.08;98.23
69335;SHT31;56477;52.742;15.242;2023-08-31T05:15:29;12.95;98.41
69335;SHT31;56477;52.742;15.242;2023-08-31T05:17:56;12.95;98.70
69335;SHT31;56477;52.742;15.242;2023-08-31T05:20:22;12.92;98.87
69335;SHT31;56477;52.742;15.242;2023-08-31T05:22:50;12.93;98.90
69335;SHT31;56477;52.742;15.242;2023-08-31T05:25:17;12.99;98.95
69335;SHT31;56477;52.742;15.242;2023-08-31T05:27:43;13.03;98.98
69335;SHT31;56477;52.742;15.242;2023-08-31T05:30:09;13.09;98.83
69335;SHT31;56477;52.742;15.242;2023-08-31T05:32:35;13.15;98.88
69335;SHT31;56477;52.742;15.242;2023-08-31T05:35:01;13.24;98.87
69335;SHT31;56477;52.742;15.242;2023-08-31T05:37:35;13.29;98.70
69335;SHT31;56477;52.742;15.242;2023-08-31T05:40:02;13.32;98.69
69335;SHT31;56477;52.742;15.242;2023-08-31T05:42:35;13.33;98.83
69335;SHT31;56477;52.742;15.242;2023-08-31T05:45:01;13.39;98.86
69335;SHT31;56477;52.742;15.242;2023-08-31T05:47:27;13.40;98.87
69335;SHT31;56477;52.742;15.242;2023-08-31T05:49:53;13.39;99.04
69335;SHT31;56477;52.742;15.242;2023-08-31T05:52:19;13.44;99.12
69335;SHT31;56477;52.742;15.242;2023-08-31T05:54:44;13.49;99.02
69335;SHT31;56477;52.742;15.242;2023-08-31T05:57:11;13.51;99.06
69335;SHT31;56477;52.742;15.242;2023-08-31T05:59:36;13.60;98.78
69335;SHT31;56477;52.742;15.242;2023-08-31T06:02:03;13.57;98.49
69335;SHT31;56477;52.742;15.242;2023-08-31T06:04:30;13.50;98.47
69335;SHT31;56477;52.742;15.242;2023-08-31T06:06:57;13.49;98.56
69335;SHT31;56477;52.742;15.242;2023-08-31T06:09:22;13.42;98.50
69335;SHT31;56477;52.742;15.242;2023-08-31T06:11:48;13.36;98.98
69335;SHT31;56477;52.742;15.242;2023-08-31T06:14:14;13.36;99.09
69335;SHT31;56477;52.742;15.242;2023-08-31T06:16:40;13.47;99.14
69335;SHT31;56477;52.742;15.242;2023-08-31T06:19:06;13.53;98.89
69335;SHT31;56477;52.742;15.242;2023-08-31T06:21:32;13.51;99.20
69335;SHT31;56477;52.742;15.242;2023-08-31T06:23:58;13.56;98.72
69335;SHT31;56477;52.742;15.242;2023-08-31T06:26:24;13.63;98.51
69335;SHT31;56477;52.742;15.242;2023-08-31T06:28:49;13.68;98.36
69335;SHT31;56477;52.742;15.242;2023-08-31T06:31:16;13.68;98.25
69335;SHT31;56477;52.742;15.242;2023-08-31T06:33:42;13.73;98.28
69335;SHT31;56477;52.742;15.242;2023-08-31T06:36:08;13.85;98.35
69335;SHT31;56477;52.742;15.242;2023-08-31T06:38:34;13.82;98.06
69335;SHT31;56477;52.742;15.242;2023-08-31T06:41:02;13.92;97.91
69335;SHT31;56477;52.742;15.242;2023-08-31T06:43:28;14.04;97.57
69335;SHT31;56477;52.742;15.242;2023-08-31T06:45:54;14.07;97.31
69335;SHT31;56477;52.742;15.242;2023-08-31T06:48:20;14.09;96.76
69335;SHT31;56477;52.742;15.242;2023-08-31T06:50:47;14.25;96.63
69335;SHT31;56477;52.742;15.242;2023-08-31T06:53:12;14.32;96.44
69335;SHT31;56477;52.742;15.242;2023-08-31T06:55:39;14.36;96.60
69335;SHT31;56477;52.742;15.242;2023-08-31T06:58:05;14.39;96.89
69335;SHT31;56477;52.742;15.242;2023-08-31T07:00:31;14.33;96.45
69335;SHT31;56477;52.742;15.242;2023-08-31T07:02:58;14.36;96.90
69335;SHT31;56477;52.742;15.242;2023-08-31T07:05:27;14.40;96.89
69335;SHT31;56477;52.742;15.242;2023-08-31T07:07:55;14.42;96.62
69335;SHT31;56477;52.742;15.242;2023-08-31T07:10:21;14.35;96.83
69335;SHT31;56477;52.742;15.242;2023-08-31T07:12:47;14.35;96.67
69335;SHT31;56477;52.742;15.242;2023-08-31T07:15:13;14.42;96.43
69335;SHT31;56477;52.742;15.242;2023-08-31T07:17:39;14.38;96.20
69335;SHT31;56477;52.742;15.242;2023-08-31T07:20:06;14.26;96.10
69335;SHT31;56477;52.742;15.242;2023-08-31T07:22:35;14.32;96.69
69335;SHT31;56477;52.742;15.242;2023-08-31T07:25:01;14.38;96.22
69335;SHT31;56477;52.742;15.242;2023-08-31T07:27:29;14.47;95.91
69335;SHT31;56477;52.742;15.242;2023-08-31T07:29:55;14.47;96.17
69335;SHT31;56477;52.742;15.242;2023-08-31T07:32:20;14.50;95.90
69335;SHT31;56477;52.742;15.242;2023-08-31T07:34:48;14.45;95.80
69335;SHT31;56477;52.742;15.242;2023-08-31T07:37:14;14.33;95.99
69335;SHT31;56477;52.742;15.242;2023-08-31T07:39:40;14.33;95.72
69335;SHT31;56477;52.742;15.242;2023-08-31T07:42:06;14.36;95.63
69335;SHT31;56477;52.742;15.242;2023-08-31T07:44:32;14.45;94.37
69335;SHT31;56477;52.742;15.242;2023-08-31T07:46:58;14.57;94.42
69335;SHT31;56477;52.742;15.242;2023-08-31T07:49:24;14.60;93.59
69335;SHT31;56477;52.742;15.242;2023-08-31T07:51:50;14.70;93.65
69335;SHT31;56477;52.742;15.242;2023-08-31T07:54:22;14.84;93.34
69335;SHT31;56477;52.742;15.242;2023-08-31T07:56:48;14.79;92.58
69335;SHT31;56477;52.742;15.242;2023-08-31T07:59:14;14.90;92.77
69335;SHT31;56477;52.742;15.242;2023-08-31T08:01:40;15.17;90.98
69335;SHT31;56477;52.742;15.242;2023-08-31T08:04:10;15.41;89.25
69335;SHT31;56477;52.742;15.242;2023-08-31T08:06:36;15.21;89.46
69335;SHT31;56477;52.742;15.242;2023-08-31T08:09:03;15.00;91.08
69335;SHT31;56477;52.742;15.242;2023-08-31T08:11:30;14.96;90.55
69335;SHT31;56477;52.742;15.242;2023-08-31T08:13:57;14.86;90.78
69335;SHT31;56477;52.742;15.242;2023-08-31T08:16:23;14.72;91.02
69335;SHT31;56477;52.742;15.242;2023-08-31T08:18:50;14.65;90.71
69335;SHT31;56477;52.742;15.242;2023-08-31T08:21:15;14.66;91.53
69335;SHT31;56477;52.742;15.242;2023-08-31T08:23:41;14.67;90.71
69335;SHT31;56477;52.742;15.242;2023-08-31T08:26:07;14.62;90.74
69335;SHT31;56477;52.742;15.242;2023-08-31T08:28:33;14.63;91.27
69335;SHT31;56477;52.742;15.242;2023-08-31T08:31:02;14.77;91.74
69335;SHT31;56477;52.742;15.242;2023-08-31T08:33:31;14.80;91.67
69335;SHT31;56477;52.742;15.242;2023-08-31T08:35:57;14.86;90.50
69335;SHT31;56477;52.742;15.242;2023-08-31T08:38:23;14.72;90.95
69335;SHT31;56477;52.742;15.242;2023-08-31T08:40:49;14.75;91.07
69335;SHT31;56477;52.742;15.242;2023-08-31T08:43:21;14.84;91.60
69335;SHT31;56477;52.742;15.242;2023-08-31T08:45:50;14.98;91.47
69335;SHT31;56477;52.742;15.242;2023-08-31T08:48:17;15.45;90.37
69335;SHT31;56477;52.742;15.242;2023-08-31T08:50:43;15.61;89.39
69335;SHT31;56477;52.742;15.242;2023-08-31T08:53:10;15.52;89.72
69335;SHT31;56477;52.742;15.242;2023-08-31T08:55:36;15.63;89.76
69335;SHT31;56477;52.742;15.242;2023-08-31T08:58:03;15.63;88.28
69335;SHT31;56477;52.742;15.242;2023-08-31T09:00:29;15.65;89.66
69335;SHT31;56477;52.742;15.242;2023-08-31T09:02:56;15.59;89.61
69335;SHT31;56477;52.742;15.242;2023-08-31T09:05:22;15.69;89.24
69335;SHT31;56477;52.742;15.242;2023-08-31T09:08:06;15.48;89.40
69335;SHT31;56477;52.742;15.242;2023-08-31T09:10:39;15.55;89.93
69335;SHT31;56477;52.742;15.242;2023-08-31T09:13:13;15.51;89.91
69335;SHT31;56477;52.742;15.242;2023-08-31T09:18:25;16.07;86.97
69335;SHT31;56477;52.742;15.242;2023-08-31T09:20:52;16.23;86.70
69335;SHT31;56477;52.742;15.242;2023-08-31T09:23:19;16.54;85.64
69335;SHT31;56477;52.742;15.242;2023-08-31T09:25:49;16.61;85.28
69335;SHT31;56477;52.742;15.242;2023-08-31T09:28:18;16.25;85.91
69335;SHT31;56477;52.742;15.242;2023-08-31T09:30:46;16.18;86.69
69335;SHT31;56477;52.742;15.242;2023-08-31T09:33:15;16.13;86.86
69335;SHT31;56477;52.742;15.242;2023-08-31T09:35:48;15.94;86.97
69335;SHT31;56477;52.742;15.242;2023-08-31T09:38:15;15.76;87.01
69335;SHT31;56477;52.742;15.242;2023-08-31T09:40:42;15.69;88.21
69335;SHT31;56477;52.742;15.242;2023-08-31T09:43:08;15.58;88.94
69335;SHT31;56477;52.742;15.242;2023-08-31T09:45:34;15.49;90.33
69335;SHT31;56477;52.742;15.242;2023-08-31T09:48:02;15.31;91.36
69335;SHT31;56477;52.742;15.242;2023-08-31T09:50:29;15.15;92.74
69335;SHT31;56477;52.742;15.242;2023-08-31T09:53:04;15.10;93.11
69335;SHT31;56477;52.742;15.242;2023-08-31T09:55:31;14.75;90.88
69335;SHT31;56477;52.742;15.242;2023-08-31T09:58:00;14.75;92.95
69335;SHT31;56477;52.742;15.242;2023-08-31T10:00:27;14.65;93.40
69335;SHT31;56477;52.742;15.242;2023-08-31T10:03:01;14.59;94.14
69335;SHT31;56477;52.742;15.242;2023-08-31T10:05:28;14.63;94.98
69335;SHT31;56477;52.742;15.242;2023-08-31T10:07:55;14.60;93.98
69335;SHT31;56477;52.742;15.242;2023-08-31T10:10:21;14.53;94.50
69335;SHT31;56477;52.742;15.242;2023-08-31T10:12:49;14.46;95.00
69335;SHT31;56477;52.742;15.242;2023-08-31T10:15:16;14.39;95.32
69335;SHT31;56477;52.742;15.242;2023-08-31T10:17:42;14.39;95.05
69335;SHT31;56477;52.742;15.242;2023-08-31T10:20:11;14.39;95.54
69335;SHT31;56477;52.742;15.242;2023-08-31T10:22:37;14.29;95.32
69335;SHT31;56477;52.742;15.242;2023-08-31T10:25:05;14.19;95.12
69335;SHT31;56477;52.742;15.242;2023-08-31T10:27:42;14.26;95.10
69335;SHT31;56477;52.742;15.242;2023-08-31T10:32:41;14.12;95.41
69335;SHT31;56477;52.742;15.242;2023-08-31T10:35:09;14.15;95.80
69335;SHT31;56477;52.742;15.242;2023-08-31T10:37:35;14.15;95.95
69335;SHT31;56477;52.742;15.242;2023-08-31T10:40:10;14.14;96.10
69335;SHT31;56477;52.742;15.242;2023-08-31T10:42:46;14.22;95.87
69335;SHT31;56477;52.742;15.242;2023-08-31T10:45:13;14.17;96.14
69335;SHT31;56477;52.742;15.242;2023-08-31T10:47:40;14.19;96.05
69335;SHT31;56477;52.742;15.242;2023-08-31T10:50:24;14.21;95.45
69335;SHT31;56477;52.742;15.242;2023-08-31T10:52:50;14.14;95.57
69335;SHT31;56477;52.742;15.242;2023-08-31T10:55:16;14.29;95.72
69335;SHT31;56477;52.742;15.242;2023-08-31T10:57:43;14.47;95.50
69335;SHT31;56477;52.742;15.242;2023-08-31T11:00:09;14.65;95.15
69335;SHT31;56477;52.742;15.242;2023-08-31T11:02:44;14.75;94.67
69335;SHT31;56477;52.742;15.242;2023-08-31T11:07:40;14.63;93.81
69335;SHT31;56477;52.742;15.242;2023-08-31T11:10:12;14.97;93.63
69335;SHT31;56477;52.742;15.242;2023-08-31T11:12:40;14.97;90.60
69335;SHT31;56477;52.742;15.242;2023-08-31T11:15:06;15.14;91.71
69335;SHT31;56477;52.742;15.242;2023-08-31T11:17:33;15.36;89.15
69335;SHT31;56477;52.742;15.242;2023-08-31T11:20:00;16.34;87.21
69335;SHT31;56477;52.742;15.242;2023-08-31T11:22:27;17.15;85.99
69335;SHT31;56477;52.742;15.242;2023-08-31T11:24:53;17.48;84.31
69335;SHT31;56477;52.742;15.242;2023-08-31T11:27:20;18.02;81.32
69335;SHT31;56477;52.742;15.242;2023-08-31T11:29:46;17.71;82.45
69335;SHT31;56477;52.742;15.242;2023-08-31T11:32:13;18.43;81.98
69335;SHT31;56477;52.742;15.242;2023-08-31T11:34:43;18.52;81.38
69335;SHT31;56477;52.742;15.242;2023-08-31T11:37:12;18.46;80.15
69335;SHT31;56477;52.742;15.242;2023-08-31T11:39:51;18.57;81.26
69335;SHT31;56477;52.742;15.242;2023-08-31T11:42:19;19.04;78.80
69335;SHT31;56477;52.742;15.242;2023-08-31T11:44:50;19.18;77.52
69335;SHT31;56477;52.742;15.242;2023-08-31T11:47:17;19.00;74.21
69335;SHT31;56477;52.742;15.242;2023-08-31T11:49:45;18.87;75.12
69335;SHT31;56477;52.742;15.242;2023-08-31T11:52:12;18.97;75.25
69335;SHT31;56477;52.742;15.242;2023-08-31T11:54:39;19.04;75.34
69335;SHT31;56477;52.742;15.242;2023-08-31T11:57:09;19.36;74.71
69335;SHT31;56477;52.742;15.242;2023-08-31T11:59:36;19.73;74.15
69335;SHT31;56477;52.742;15.242;2023-08-31T12:02:07;19.18;72.70
69335;SHT31;56477;52.742;15.242;2023-08-31T12:04:43;19.03;74.44
69335;SHT31;56477;52.742;15.242;2023-08-31T12:07:16;18.91;75.61
69335;SHT31;56477;52.742;15.242;2023-08-31T12:09:42;19.49;74.77
69335;SHT31;56477;52.742;15.242;2023-08-31T12:12:11;18.95;74.07
69335;SHT31;56477;52.742;15.242;2023-08-31T12:14:37;18.61;73.41
69335;SHT31;56477;52.742;15.242;2023-08-31T12:17:07;18.35;73.26
69335;SHT31;56477;52.742;15.242;2023-08-31T12:19:37;18.70;72.67
69335;SHT31;56477;52.742;15.242;2023-08-31T12:22:03;19.00;72.47
69335;SHT31;56477;52.742;15.242;2023-08-31T12:24:29;19.56;72.88
69335;SHT31;56477;52.742;15.242;2023-08-31T12:27:02;19.73;66.12
69335;SHT31;56477;52.742;15.242;2023-08-31T12:29:28;19.76;66.88
69335;SHT31;56477;52.742;15.242;2023-08-31T12:31:54;18.42;68.84
69335;SHT31;56477;52.742;15.242;2023-08-31T12:34:21;18.10;68.94
69335;SHT31;56477;52.742;15.242;2023-08-31T12:36:47;17.73;71.33
69335;SHT31;56477;52.742;15.242;2023-08-31T12:39:12;17.66;72.61
69335;SHT31;56477;52.742;15.242;2023-08-31T12:41:39;17.46;74.04
69335;SHT31;56477;52.742;15.242;2023-08-31T12:44:08;17.73;72.77
69335;SHT31;56477;52.742;15.242;2023-08-31T12:46:35;18.87;70.98
69335;SHT31;56477;52.742;15.242;2023-08-31T12:49:01;19.31;66.22
69335;SHT31;56477;52.742;15.242;2023-08-31T12:51:30;19.43;63.49
69335;SHT31;56477;52.742;15.242;2023-08-31T12:53:56;20.13;61.77
69335;SHT31;56477;52.742;15.242;2023-08-31T12:56:23;19.96;62.40
69335;SHT31;56477;52.742;15.242;2023-08-31T12:58:52;20.03;61.50
69335;SHT31;56477;52.742;15.242;2023-08-31T13:01:20;19.94;63.32
69335;SHT31;56477;52.742;15.242;2023-08-31T13:03:46;20.53;62.52
69335;SHT31;56477;52.742;15.242;2023-08-31T13:06:14;20.47;62.46
69335;SHT31;56477;52.742;15.242;2023-08-31T13:08:40;20.41;63.13
69335;SHT31;56477;52.742;15.242;2023-08-31T13:11:06;20.58;62.76
69335;SHT31;56477;52.742;15.242;2023-08-31T13:13:32;20.95;63.26
69335;SHT31;56477;52.742;15.242;2023-08-31T13:15:58;21.11;62.75
69335;SHT31;56477;52.742;15.242;2023-08-31T13:18:24;20.14;63.54
69335;SHT31;56477;52.742;15.242;2023-08-31T13:20:51;19.25;64.23
69335;SHT31;56477;52.742;15.242;2023-08-31T13:23:18;18.68;66.63
69335;SHT31;56477;52.742;15.242;2023-08-31T13:25:44;18.19;68.09
69335;SHT31;56477;52.742;15.242;2023-08-31T13:28:10;17.94;69.05
69335;SHT31;56477;52.742;15.242;2023-08-31T13:30:36;17.64;69.43
69335;SHT31;56477;52.742;15.242;2023-08-31T13:33:02;17.46;70.52
69335;SHT31;56477;52.742;15.242;2023-08-31T13:35:30;17.31;70.05
69335;SHT31;56477;52.742;15.242;2023-08-31T13:37:56;17.03;70.88
69335;SHT31;56477;52.742;15.242;2023-08-31T13:40:22;16.96;72.59
69335;SHT31;56477;52.742;15.242;2023-08-31T13:42:56;16.64;73.40
69335;SHT31;56477;52.742;15.242;2023-08-31T13:45:29;16.30;75.34
69335;SHT31;56477;52.742;15.242;2023-08-31T13:47:58;16.02;76.97
69335;SHT31;56477;52.742;15.242;2023-08-31T13:50:28;15.79;81.55
69335;SHT31;56477;52.742;15.242;2023-08-31T13:52:54;15.24;83.13
69335;SHT31;56477;52.742;15.242;2023-08-31T13:55:21;15.05;84.71
69335;SHT31;56477;52.742;15.242;2023-08-31T13:57:47;14.90;85.06
69335;SHT31;56477;52.742;15.242;2023-08-31T14:00:14;14.83;85.07
69335;SHT31;56477;52.742;15.242;2023-08-31T14:02:41;14.88;84.89
69335;SHT31;56477;52.742;15.242;2023-08-31T14:05:09;15.03;85.68
69335;SHT31;56477;52.742;15.242;2023-08-31T14:07:36;15.56;84.29
69335;SHT31;56477;52.742;15.242;2023-08-31T14:10:03;16.47;81.05
69335;SHT31;56477;52.742;15.242;2023-08-31T14:12:32;17.55;78.36
69335;SHT31;56477;52.742;15.242;2023-08-31T14:14:59;17.81;74.22
69335;SHT31;56477;52.742;15.242;2023-08-31T14:17:26;18.47;73.46
69335;SHT31;56477;52.742;15.242;2023-08-31T14:19:53;18.66;71.59
69335;SHT31;56477;52.742;15.242;2023-08-31T14:22:19;18.76;72.03
69335;SHT31;56477;52.742;15.242;2023-08-31T14:24:45;19.01;71.94
69335;SHT31;56477;52.742;15.242;2023-08-31T14:27:10;19.28;70.74
69335;SHT31;56477;52.742;15.242;2023-08-31T14:29:37;19.69;69.32
69335;SHT31;56477;52.742;15.242;2023-08-31T14:32:03;19.35;68.26
69335;SHT31;56477;52.742;15.242;2023-08-31T14:34:29;18.26;72.09
69335;SHT31;56477;52.742;15.242;2023-08-31T14:36:54;17.12;73.78
69335;SHT31;56477;52.742;15.242;2023-08-31T14:39:23;16.61;77.26
69335;SHT31;56477;52.742;15.242;2023-08-31T14:41:55;16.00;80.09
69335;SHT31;56477;52.742;15.242;2023-08-31T14:44:22;15.83;81.27
69335;SHT31;56477;52.742;15.242;2023-08-31T14:46:48;15.59;82.51
69335;SHT31;56477;52.742;15.242;2023-08-31T14:49:14;15.36;81.69
69335;SHT31;56477;52.742;15.242;2023-08-31T14:51:39;15.39;82.21
69335;SHT31;56477;52.742;15.242;2023-08-31T14:54:05;15.38;82.69
69335;SHT31;56477;52.742;15.242;2023-08-31T14:56:31;15.30;82.61
69335;SHT31;56477;52.742;15.242;2023-08-31T14:58:57;15.28;83.22
69335;SHT31;56477;52.742;15.242;2023-08-31T15:01:23;15.31;83.52
69335;SHT31;56477;52.742;15.242;2023-08-31T15:03:50;15.21;84.10
69335;SHT31;56477;52.742;15.242;2023-08-31T15:06:16;15.21;83.26
69335;SHT31;56477;52.742;15.242;2023-08-31T15:08:42;15.24;84.24
69335;SHT31;56477;52.742;15.242;2023-08-31T15:11:10;15.15;84.86
69335;SHT31;56477;52.742;15.242;2023-08-31T15:13:36;15.08;85.54
69335;SHT31;56477;52.742;15.242;2023-08-31T15:16:02;15.05;85.70
69335;SHT31;56477;52.742;15.242;2023-08-31T15:18:28;15.03;85.04
69335;SHT31;56477;52.742;15.242;2023-08-31T15:20:55;15.14;82.90
69335;SHT31;56477;52.742;15.242;2023-08-31T15:23:21;15.56;81.60
69335;SHT31;56477;52.742;15.242;2023-08-31T15:25:47;15.96;78.93
69335;SHT31;56477;52.742;15.242;2023-08-31T15:28:13;16.27;76.57
69335;SHT31;56477;52.742;15.242;2023-08-31T15:30:39;16.30;78.60
69335;SHT31;56477;52.742;15.242;2023-08-31T15:33:05;16.25;77.77
69335;SHT31;56477;52.742;15.242;2023-08-31T15:35:31;16.06;77.41